sensor_id;sensor_type;location;lat;lon;timestamp;P1;durP1;ratioP1;P2;durP2;ratioP2
48034;SDS011;33812;46.480;6.834;2023-11-19T00:00:07;2.63;;;1.00;;
48034;SDS011;33812;46.480;6.834;2023-11-19T00:04:12;2.05;;;1.42;;
48034;SDS011;33812;46.480;6.834;2023-11-19T00:08:15;1.05;;;0.82;;
48034;SDS011;33812;46.480;6.834;2023-11-19T00:12:17;2.25;;;1.02;;
48034;SDS011;33812;46.480;6.834;2023-11-19T00:16:19;1.13;;;0.80;;
48034;SDS011;33812;46.480;6.834;2023-11-19T00:20:21;2.88;;;1.00;;
48034;SDS011;33812;46.480;6.834;2023-11-19T00:24:24;1.52;;;0.90;;
48034;SDS011;33812;46.480;6.834;2023-11-19T00:28:26;2.53;;;0.85;;
48034;SDS011;33812;46.480;6.834;2023-11-19T00:32:28;1.15;;;0.80;;
48034;SDS011;33812;46.480;6.834;2023-11-19T00:36:30;2.00;;;0.80;;
48034;SDS011;33812;46.480;6.834;2023-11-19T00:40:33;1.42;;;1.05;;
48034;SDS011;33812;46.480;6.834;2023-11-19T00:44:35;3.08;;;0.95;;
48034;SDS011;33812;46.480;6.834;2023-11-19T00:48:37;1.25;;;1.00;;
48034;SDS011;33812;46.480;6.834;2023-11-19T00:52:39;0.98;;;0.80;;
48034;SDS011;33812;46.480;6.834;2023-11-19T00:56:42;3.05;;;0.80;;
48034;SDS011;33812;46.480;6.834;2023-11-19T01:00:44;0.63;;;0.63;;
48034;SDS011;33812;46.480;6.834;2023-11-19T01:04:47;1.40;;;0.70;;
48034;SDS011;33812;46.480;6.834;2023-11-19T01:08:51;1.08;;;0.70;;
48034;SDS011;33812;46.480;6.834;2023-11-19T01:12:54;0.90;;;0.70;;
48034;SDS011;33812;46.480;6.834;2023-11-19T01:16:56;1.05;;;0.65;;
48034;SDS011;33812;46.480;6.834;2023-11-19T01:20:58;3.33;;;0.73;;
48034;SDS011;33812;46.480;6.834;2023-11-19T01:25:00;1.08;;;0.60;;
48034;SDS011;33812;46.480;6.834;2023-11-19T01:29:04;1.02;;;0.75;;
48034;SDS011;33812;46.480;6.834;2023-11-19T01:33:06;1.30;;;0.85;;
48034;SDS011;33812;46.480;6.834;2023-11-19T01:37:08;1.45;;;0.80;;
48034;SDS011;33812;46.480;6.834;2023-11-19T01:41:12;1.83;;;0.90;;
48034;SDS011;33812;46.480;6.834;2023-11-19T01:45:19;0.77;;;0.68;;
48034;SDS011;33812;46.480;6.834;2023-11-19T01:49:28;1.13;;;0.75;;
48034;SDS011;33812;46.480;6.834;2023-11-19T01:53:32;0.90;;;0.70;;
48034;SDS011;33812;46.480;6.834;2023-11-19T01:57:35;0.65;;;0.65;;
48034;SDS011;33812;46.480;6.834;2023-11-19T02:01:42;3.40;;;0.70;;
48034;SDS011;33812;46.480;6.834;2023-11-19T02:05:44;0.70;;;0.70;;
48034;SDS011;33812;46.480;6.834;2023-11-19T02:09:49;0.98;;;0.68;;
48034;SDS011;33812;46.480;6.834;2023-11-19T02:13:50;1.45;;;0.80;;
48034;SDS011;33812;46.480;6.834;2023-11-19T02:17:54;1.60;;;0.80;;
48034;SDS011;33812;46.480;6.834;2023-11-19T02:21:55;2.45;;;0.90;;
48034;SDS011;33812;46.480;6.834;2023-11-19T02:26:00;1.25;;;0.70;;
48034;SDS011;33812;46.480;6.834;2023-11-19T02:30:07;0.75;;;0.68;;
48034;SDS011;33812;46.480;6.834;2023-11-19T02:34:10;1.33;;;0.88;;
48034;SDS011;33812;46.480;6.834;2023-11-19T02:38:13;0.98;;;0.63;;
48034;SDS011;33812;46.480;6.834;2023-11-19T02:42:15;0.60;;;0.60;;
48034;SDS011;33812;46.480;6.834;2023-11-19T02:46:18;1.52;;;0.88;;
48034;SDS011;33812;46.480;6.834;2023-11-19T02:50:20;0.68;;;0.65;;
48034;SDS011;33812;46.480;6.834;2023-11-19T02:54:25;1.67;;;0.90;;
48034;SDS011;33812;46.480;6.834;2023-11-19T02:58:27;1.02;;;0.63;;
48034;SDS011;33812;46.480;6.834;2023-11-19T03:02:31;1.13;;;0.70;;
48034;SDS011;33812;46.480;6.834;2023-11-19T03:06:44;1.85;;;0.70;;
48034;SDS011;33812;46.480;6.834;2023-11-19T03:10:48;0.82;;;0.70;;
48034;SDS011;33812;46.480;6.834;2023-11-19T03:14:51;0.70;;;0.70;;
48034;SDS011;33812;46.480;6.834;2023-11-19T03:18:55;1.00;;;0.90;;
48034;SDS011;33812;46.480;6.834;2023-11-19T03:22:56;1.02;;;0.65;;
48034;SDS011;33812;46.480;6.834;2023-11-19T03:26:58;0.85;;;0.80;;
48034;SDS011;33812;46.480;6.834;2023-11-19T03:31:04;0.70;;;0.70;;
48034;SDS011;33812;46.480;6.834;2023-11-19T03:35:09;0.70;;;0.65;;
48034;SDS011;33812;46.480;6.834;2023-11-19T03:39:12;1.20;;;0.82;;
48034;SDS011;33812;46.480;6.834;2023-11-19T03:43:14;0.50;;;0.50;;
48034;SDS011;33812;46.480;6.834;2023-11-19T03:47:16;0.88;;;0.60;;
48034;SDS011;33812;46.480;6.834;2023-11-19T03:51:19;3.53;;;0.80;;
48034;SDS011;33812;46.480;6.834;2023-11-19T03:55:21;1.02;;;0.82;;
48034;SDS011;33812;46.480;6.834;2023-11-19T03:59:23;1.25;;;0.63;;
48034;SDS011;33812;46.480;6.834;2023-11-19T04:03:24;0.77;;;0.73;;
48034;SDS011;33812;46.480;6.834;2023-11-19T04:07:27;1.33;;;0.55;;
48034;SDS011;33812;46.480;6.834;2023-11-19T04:11:29;1.08;;;0.70;;
48034;SDS011;33812;46.480;6.834;2023-11-19T04:15:32;1.23;;;0.50;;
48034;SDS011;33812;46.480;6.834;2023-11-19T04:19:34;0.95;;;0.60;;
48034;SDS011;33812;46.480;6.834;2023-11-19T04:23:37;0.63;;;0.57;;
48034;SDS011;33812;46.480;6.834;2023-11-19T04:27:39;0.70;;;0.60;;
48034;SDS011;33812;46.480;6.834;2023-11-19T04:31:41;0.77;;;0.60;;
48034;SDS011;33812;46.480;6.834;2023-11-19T04:35:43;0.75;;;0.63;;
48034;SDS011;33812;46.480;6.834;2023-11-19T04:39:46;1.15;;;0.60;;
48034;SDS011;33812;46.480;6.834;2023-11-19T04:43:48;0.75;;;0.60;;
48034;SDS011;33812;46.480;6.834;2023-11-19T04:47:50;0.43;;;0.40;;
48034;SDS011;33812;46.480;6.834;2023-11-19T04:51:51;0.63;;;0.60;;
48034;SDS011;33812;46.480;6.834;2023-11-19T04:55:55;1.67;;;0.70;;
48034;SDS011;33812;46.480;6.834;2023-11-19T04:59:57;1.00;;;0.50;;
48034;SDS011;33812;46.480;6.834;2023-11-19T05:03:58;1.27;;;0.60;;
48034;SDS011;33812;46.480;6.834;2023-11-19T05:08:00;0.77;;;0.70;;
48034;SDS011;33812;46.480;6.834;2023-11-19T05:12:04;0.45;;;0.45;;
48034;SDS011;33812;46.480;6.834;2023-11-19T05:16:08;1.30;;;0.52;;
48034;SDS011;33812;46.480;6.834;2023-11-19T05:20:10;0.50;;;0.40;;
48034;SDS011;33812;46.480;6.834;2023-11-19T05:24:14;0.60;;;0.60;;
48034;SDS011;33812;46.480;6.834;2023-11-19T05:28:17;1.38;;;0.60;;
48034;SDS011;33812;46.480;6.834;2023-11-19T05:32:19;1.48;;;0.50;;
48034;SDS011;33812;46.480;6.834;2023-11-19T05:36:21;0.85;;;0.50;;
48034;SDS011;33812;46.480;6.834;2023-11-19T05:40:23;0.93;;;0.60;;
48034;SDS011;33812;46.480;6.834;2023-11-19T05:44:26;0.77;;;0.43;;
48034;SDS011;33812;46.480;6.834;2023-11-19T05:48:28;0.80;;;0.55;;
48034;SDS011;33812;46.480;6.834;2023-11-19T05:52:31;0.40;;;0.40;;
48034;SDS011;33812;46.480;6.834;2023-11-19T05:56:33;0.70;;;0.57;;
48034;SDS011;33812;46.480;6.834;2023-11-19T06:00:37;0.80;;;0.55;;
48034;SDS011;33812;46.480;6.834;2023-11-19T06:04:39;1.48;;;0.50;;
48034;SDS011;33812;46.480;6.834;2023-11-19T06:08:41;0.93;;;0.55;;
48034;SDS011;33812;46.480;6.834;2023-11-19T06:12:44;1.67;;;0.80;;
48034;SDS011;33812;46.480;6.834;2023-11-19T06:16:47;0.50;;;0.50;;
48034;SDS011;33812;46.480;6.834;2023-11-19T06:20:49;0.45;;;0.45;;
48034;SDS011;33812;46.480;6.834;2023-11-19T06:24:51;0.50;;;0.50;;
48034;SDS011;33812;46.480;6.834;2023-11-19T06:28:53;0.52;;;0.40;;
48034;SDS011;33812;46.480;6.834;2023-11-19T06:32:56;0.60;;;0.40;;
48034;SDS011;33812;46.480;6.834;2023-11-19T06:36:58;1.00;;;0.40;;
48034;SDS011;33812;46.480;6.834;2023-11-19T06:40:59;5.75;;;0.60;;
48034;SDS011;33812;46.480;6.834;2023-11-19T06:45:01;0.55;;;0.50;;
48034;SDS011;33812;46.480;6.834;2023-11-19T06:49:05;1.00;;;0.60;;
48034;SDS011;33812;46.480;6.834;2023-11-19T06:53:08;1.43;;;0.50;;
48034;SDS011;33812;46.480;6.834;2023-11-19T06:57:10;0.63;;;0.55;;
48034;SDS011;33812;46.480;6.834;2023-11-19T07:01:12;1.85;;;0.77;;
48034;SDS011;33812;46.480;6.834;2023-11-19T07:05:16;12.93;;;0.82;;
48034;SDS011;33812;46.480;6.834;2023-11-19T07:09:18;7.07;;;0.60;;
48034;SDS011;33812;46.480;6.834;2023-11-19T07:13:21;2.90;;;0.80;;
48034;SDS011;33812;46.480;6.834;2023-11-19T07:17:23;5.07;;;0.60;;
48034;SDS011;33812;46.480;6.834;2023-11-19T07:21:27;2.78;;;0.90;;
48034;SDS011;33812;46.480;6.834;2023-11-19T07:25:29;0.90;;;0.45;;
48034;SDS011;33812;46.480;6.834;2023-11-19T07:29:31;0.60;;;0.45;;
48034;SDS011;33812;46.480;6.834;2023-11-19T07:33:33;2.70;;;0.73;;
48034;SDS011;33812;46.480;6.834;2023-11-19T07:37:36;6.32;;;0.70;;
48034;SDS011;33812;46.480;6.834;2023-11-19T07:41:39;4.07;;;0.80;;
48034;SDS011;33812;46.480;6.834;2023-11-19T07:45:41;3.47;;;0.70;;
48034;SDS011;33812;46.480;6.834;2023-11-19T07:49:43;1.52;;;0.70;;
48034;SDS011;33812;46.480;6.834;2023-11-19T07:53:47;7.93;;;0.80;;
48034;SDS011;33812;46.480;6.834;2023-11-19T07:57:49;1.88;;;0.70;;
48034;SDS011;33812;46.480;6.834;2023-11-19T08:01:51;4.38;;;0.60;;
48034;SDS011;33812;46.480;6.834;2023-11-19T08:05:54;9.70;;;0.90;;
48034;SDS011;33812;46.480;6.834;2023-11-19T08:09:58;14.52;;;1.20;;
48034;SDS011;33812;46.480;6.834;2023-11-19T08:14:01;5.40;;;0.80;;
48034;SDS011;33812;46.480;6.834;2023-11-19T08:18:03;5.20;;;0.85;;
48034;SDS011;33812;46.480;6.834;2023-11-19T08:22:05;11.68;;;1.08;;
48034;SDS011;33812;46.480;6.834;2023-11-19T08:26:08;11.30;;;1.45;;
48034;SDS011;33812;46.480;6.834;2023-11-19T08:30:10;10.77;;;1.02;;
48034;SDS011;33812;46.480;6.834;2023-11-19T08:34:12;12.75;;;0.85;;
48034;SDS011;33812;46.480;6.834;2023-11-19T08:38:15;10.82;;;0.90;;
48034;SDS011;33812;46.480;6.834;2023-11-19T08:42:19;9.20;;;1.08;;
48034;SDS011;33812;46.480;6.834;2023-11-19T08:46:21;15.73;;;1.00;;
48034;SDS011;33812;46.480;6.834;2023-11-19T08:50:22;6.05;;;1.05;;
48034;SDS011;33812;46.480;6.834;2023-11-19T08:54:24;2.42;;;0.55;;
48034;SDS011;33812;46.480;6.834;2023-11-19T08:58:27;6.18;;;0.80;;
48034;SDS011;33812;46.480;6.834;2023-11-19T09:02:29;9.30;;;1.17;;
48034;SDS011;33812;46.480;6.834;2023-11-19T09:06:32;14.43;;;1.05;;
48034;SDS011;33812;46.480;6.834;2023-11-19T09:10:34;21.52;;;1.25;;
48034;SDS011;33812;46.480;6.834;2023-11-19T09:14:37;6.47;;;1.23;;
48034;SDS011;33812;46.480;6.834;2023-11-19T09:18:40;19.25;;;1.42;;
48034;SDS011;33812;46.480;6.834;2023-11-19T09:22:43;9.38;;;1.70;;
48034;SDS011;33812;46.480;6.834;2023-11-19T09:26:45;20.55;;;1.40;;
48034;SDS011;33812;46.480;6.834;2023-11-19T09:30:48;10.77;;;1.50;;
48034;SDS011;33812;46.480;6.834;2023-11-19T09:34:51;9.50;;;1.13;;
48034;SDS011;33812;46.480;6.834;2023-11-19T09:38:53;15.75;;;1.55;;
48034;SDS011;33812;46.480;6.834;2023-11-19T09:42:56;16.08;;;2.47;;
48034;SDS011;33812;46.480;6.834;2023-11-19T09:46:59;18.33;;;1.60;;
48034;SDS011;33812;46.480;6.834;2023-11-19T09:51:01;26.25;;;2.25;;
48034;SDS011;33812;46.480;6.834;2023-11-19T09:55:04;23.98;;;1.33;;
48034;SDS011;33812;46.480;6.834;2023-11-19T09:59:07;21.98;;;2.10;;
48034;SDS011;33812;46.480;6.834;2023-11-19T10:03:14;19.17;;;1.98;;
48034;SDS011;33812;46.480;6.834;2023-11-19T10:07:16;31.40;;;2.92;;
48034;SDS011;33812;46.480;6.834;2023-11-19T10:11:18;12.55;;;1.58;;
48034;SDS011;33812;46.480;6.834;2023-11-19T10:15:22;19.50;;;2.20;;
48034;SDS011;33812;46.480;6.834;2023-11-19T10:19:34;14.50;;;2.22;;
48034;SDS011;33812;46.480;6.834;2023-11-19T10:23:47;20.48;;;1.92;;
48034;SDS011;33812;46.480;6.834;2023-11-19T10:27:50;5.03;;;1.30;;
48034;SDS011;33812;46.480;6.834;2023-11-19T10:31:55;16.65;;;1.67;;
48034;SDS011;33812;46.480;6.834;2023-11-19T10:35:59;13.10;;;1.63;;
48034;SDS011;33812;46.480;6.834;2023-11-19T10:40:01;12.30;;;1.73;;
48034;SDS011;33812;46.480;6.834;2023-11-19T10:44:05;15.63;;;2.15;;
48034;SDS011;33812;46.480;6.834;2023-11-19T10:48:08;8.70;;;1.33;;
48034;SDS011;33812;46.480;6.834;2023-11-19T10:52:12;7.72;;;1.65;;
48034;SDS011;33812;46.480;6.834;2023-11-19T10:56:20;11.73;;;1.80;;
48034;SDS011;33812;46.480;6.834;2023-11-19T11:00:24;6.03;;;1.10;;
48034;SDS011;33812;46.480;6.834;2023-11-19T11:04:27;8.02;;;1.67;;
48034;SDS011;33812;46.480;6.834;2023-11-19T11:08:33;5.57;;;1.30;;
48034;SDS011;33812;46.480;6.834;2023-11-19T11:12:39;7.80;;;1.40;;
48034;SDS011;33812;46.480;6.834;2023-11-19T11:16:43;6.07;;;1.05;;
48034;SDS011;33812;46.480;6.834;2023-11-19T11:20:45;4.40;;;1.35;;
48034;SDS011;33812;46.480;6.834;2023-11-19T11:29:20;7.90;;;1.20;;
48034;SDS011;33812;46.480;6.834;2023-11-19T11:33:34;6.95;;;2.00;;
48034;SDS011;33812;46.480;6.834;2023-11-19T11:37:49;9.93;;;1.33;;
48034;SDS011;33812;46.480;6.834;2023-11-19T11:50:56;9.63;;;1.35;;
48034;SDS011;33812;46.480;6.834;2023-11-19T11:55:02;16.67;;;1.30;;
48034;SDS011;33812;46.480;6.834;2023-11-19T11:59:10;13.18;;;1.55;;
48034;SDS011;33812;46.480;6.834;2023-11-19T12:03:20;15.68;;;1.50;;
48034;SDS011;33812;46.480;6.834;2023-11-19T12:07:24;12.05;;;1.30;;
48034;SDS011;33812;46.480;6.834;2023-11-19T12:11:26;8.70;;;1.02;;
48034;SDS011;33812;46.480;6.834;2023-11-19T12:15:34;19.45;;;1.92;;
48034;SDS011;33812;46.480;6.834;2023-11-19T12:20:13;19.35;;;1.92;;
48034;SDS011;33812;46.480;6.834;2023-11-19T12:24:15;9.07;;;1.33;;
48034;SDS011;33812;46.480;6.834;2023-11-19T12:28:17;16.92;;;1.80;;
48034;SDS011;33812;46.480;6.834;2023-11-19T12:32:21;13.95;;;1.23;;
48034;SDS011;33812;46.480;6.834;2023-11-19T12:36:23;12.43;;;1.70;;
48034;SDS011;33812;46.480;6.834;2023-11-19T12:40:25;11.95;;;1.58;;
48034;SDS011;33812;46.480;6.834;2023-11-19T12:44:29;8.30;;;1.35;;
48034;SDS011;33812;46.480;6.834;2023-11-19T12:48:32;12.40;;;1.38;;
48034;SDS011;33812;46.480;6.834;2023-11-19T12:52:34;14.43;;;1.70;;
48034;SDS011;33812;46.480;6.834;2023-11-19T12:56:36;6.80;;;1.50;;
48034;SDS011;33812;46.480;6.834;2023-11-19T13:00:38;7.20;;;1.52;;
48034;SDS011;33812;46.480;6.834;2023-11-19T13:04:42;4.50;;;1.30;;
48034;SDS011;33812;46.480;6.834;2023-11-19T13:08:44;8.50;;;1.50;;
48034;SDS011;33812;46.480;6.834;2023-11-19T13:17:01;5.30;;;1.48;;
48034;SDS011;33812;46.480;6.834;2023-11-19T13:21:05;4.68;;;1.52;;
48034;SDS011;33812;46.480;6.834;2023-11-19T13:25:07;6.30;;;3.28;;
48034;SDS011;33812;46.480;6.834;2023-11-19T13:29:10;4.50;;;1.92;;
48034;SDS011;33812;46.480;6.834;2023-11-19T13:33:11;4.90;;;1.48;;
48034;SDS011;33812;46.480;6.834;2023-11-19T13:37:15;4.72;;;1.20;;
48034;SDS011;33812;46.480;6.834;2023-11-19T13:41:17;2.10;;;1.23;;
48034;SDS011;33812;46.480;6.834;2023-11-19T13:45:19;2.83;;;1.10;;
48034;SDS011;33812;46.480;6.834;2023-11-19T13:49:22;3.33;;;1.27;;
48034;SDS011;33812;46.480;6.834;2023-11-19T13:53:25;3.78;;;1.48;;
48034;SDS011;33812;46.480;6.834;2023-11-19T13:57:29;2.15;;;1.00;;
48034;SDS011;33812;46.480;6.834;2023-11-19T14:01:31;4.80;;;1.55;;
48034;SDS011;33812;46.480;6.834;2023-11-19T14:05:33;1.98;;;1.00;;
48034;SDS011;33812;46.480;6.834;2023-11-19T14:09:36;15.35;;;3.33;;
48034;SDS011;33812;46.480;6.834;2023-11-19T14:13:38;5.55;;;1.17;;
48034;SDS011;33812;46.480;6.834;2023-11-19T14:17:40;4.35;;;1.00;;
48034;SDS011;33812;46.480;6.834;2023-11-19T14:21:42;25.95;;;1.92;;
48034;SDS011;33812;46.480;6.834;2023-11-19T14:25:47;13.40;;;1.40;;
48034;SDS011;33812;46.480;6.834;2023-11-19T14:29:50;8.35;;;1.40;;
48034;SDS011;33812;46.480;6.834;2023-11-19T14:33:52;6.82;;;1.27;;
48034;SDS011;33812;46.480;6.834;2023-11-19T14:37:53;9.00;;;1.20;;
48034;SDS011;33812;46.480;6.834;2023-11-19T14:41:57;3.30;;;1.20;;
48034;SDS011;33812;46.480;6.834;2023-11-19T14:46:01;6.15;;;2.00;;
48034;SDS011;33812;46.480;6.834;2023-11-19T14:50:04;6.15;;;1.20;;
48034;SDS011;33812;46.480;6.834;2023-11-19T14:54:06;4.97;;;1.08;;
48034;SDS011;33812;46.480;6.834;2023-11-19T14:58:10;4.53;;;1.25;;
48034;SDS011;33812;46.480;6.834;2023-11-19T15:02:11;1.50;;;0.90;;
48034;SDS011;33812;46.480;6.834;2023-11-19T15:06:13;1.73;;;1.08;;
48034;SDS011;33812;46.480;6.834;2023-11-19T15:10:15;4.32;;;0.90;;
48034;SDS011;33812;46.480;6.834;2023-11-19T15:14:18;2.30;;;1.10;;
48034;SDS011;33812;46.480;6.834;2023-11-19T15:18:20;3.20;;;1.42;;
48034;SDS011;33812;46.480;6.834;2023-11-19T15:22:22;2.88;;;1.10;;
48034;SDS011;33812;46.480;6.834;2023-11-19T15:26:23;4.50;;;1.15;;
48034;SDS011;33812;46.480;6.834;2023-11-19T15:30:27;3.58;;;1.00;;
48034;SDS011;33812;46.480;6.834;2023-11-19T15:34:29;1.90;;;1.05;;
48034;SDS011;33812;46.480;6.834;2023-11-19T15:38:30;2.78;;;1.05;;
48034;SDS011;33812;46.480;6.834;2023-11-19T15:42:32;1.63;;;1.00;;
48034;SDS011;33812;46.480;6.834;2023-11-19T15:46:35;5.33;;;1.20;;
48034;SDS011;33812;46.480;6.834;2023-11-19T15:50:37;3.20;;;1.40;;
48034;SDS011;33812;46.480;6.834;2023-11-19T15:54:39;3.22;;;1.27;;
48034;SDS011;33812;46.480;6.834;2023-11-19T15:58:41;2.38;;;1.33;;
48034;SDS011;33812;46.480;6.834;2023-11-19T16:02:44;1.17;;;0.98;;
48034;SDS011;33812;46.480;6.834;2023-11-19T16:06:46;1.67;;;1.15;;
48034;SDS011;33812;46.480;6.834;2023-11-19T16:10:48;2.78;;;0.90;;
48034;SDS011;33812;46.480;6.834;2023-11-19T16:14:50;1.30;;;0.90;;
48034;SDS011;33812;46.480;6.834;2023-11-19T16:18:54;1.40;;;1.08;;
48034;SDS011;33812;46.480;6.834;2023-11-19T16:22:55;2.65;;;1.00;;
48034;SDS011;33812;46.480;6.834;2023-11-19T16:26:59;1.17;;;0.95;;
48034;SDS011;33812;46.480;6.834;2023-11-19T16:31:01;3.70;;;1.15;;
48034;SDS011;33812;46.480;6.834;2023-11-19T16:35:05;1.55;;;1.00;;
48034;SDS011;33812;46.480;6.834;2023-11-19T16:39:11;3.15;;;1.10;;
48034;SDS011;33812;46.480;6.834;2023-11-19T16:43:13;9.75;;;1.27;;
48034;SDS011;33812;46.480;6.834;2023-11-19T16:47:15;9.10;;;1.35;;
48034;SDS011;33812;46.480;6.834;2023-11-19T16:51:18;3.17;;;1.20;;
48034;SDS011;33812;46.480;6.834;2023-11-19T16:55:20;3.38;;;1.60;;
48034;SDS011;33812;46.480;6.834;2023-11-19T16:59:22;6.72;;;1.10;;
48034;SDS011;33812;46.480;6.834;2023-11-19T17:03:24;2.10;;;1.00;;
48034;SDS011;33812;46.480;6.834;2023-11-19T17:07:27;4.75;;;1.10;;
48034;SDS011;33812;46.480;6.834;2023-11-19T17:11:29;5.88;;;1.50;;
48034;SDS011;33812;46.480;6.834;2023-11-19T17:15:32;4.07;;;1.67;;
48034;SDS011;33812;46.480;6.834;2023-11-19T17:19:34;3.00;;;1.35;;
48034;SDS011;33812;46.480;6.834;2023-11-19T17:23:39;11.55;;;1.60;;
48034;SDS011;33812;46.480;6.834;2023-11-19T17:27:41;8.43;;;1.40;;
48034;SDS011;33812;46.480;6.834;2023-11-19T17:31:43;9.65;;;1.70;;
48034;SDS011;33812;46.480;6.834;2023-11-19T17:35:45;6.00;;;1.75;;
48034;SDS011;33812;46.480;6.834;2023-11-19T17:39:48;10.27;;;1.85;;
48034;SDS011;33812;46.480;6.834;2023-11-19T17:43:50;11.30;;;1.88;;
48034;SDS011;33812;46.480;6.834;2023-11-19T17:47:52;8.82;;;1.73;;
48034;SDS011;33812;46.480;6.834;2023-11-19T17:51:54;12.48;;;3.08;;
48034;SDS011;33812;46.480;6.834;2023-11-19T17:55:58;7.72;;;1.80;;
48034;SDS011;33812;46.480;6.834;2023-11-19T18:00:00;7.35;;;1.85;;
48034;SDS011;33812;46.480;6.834;2023-11-19T18:04:05;24.60;;;1.77;;
48034;SDS011;33812;46.480;6.834;2023-11-19T18:08:07;7.45;;;1.45;;
48034;SDS011;33812;46.480;6.834;2023-11-19T18:12:11;5.07;;;1.48;;
48034;SDS011;33812;46.480;6.834;2023-11-19T18:16:13;13.68;;;1.55;;
48034;SDS011;33812;46.480;6.834;2023-11-19T18:20:17;5.85;;;1.13;;
48034;SDS011;33812;46.480;6.834;2023-11-19T18:24:19;3.22;;;1.20;;
48034;SDS011;33812;46.480;6.834;2023-11-19T18:28:22;12.68;;;1.40;;
48034;SDS011;33812;46.480;6.834;2023-11-19T18:32:26;5.88;;;2.25;;
48034;SDS011;33812;46.480;6.834;2023-11-19T18:36:32;15.45;;;2.00;;
48034;SDS011;33812;46.480;6.834;2023-11-19T18:40:36;10.20;;;3.47;;
48034;SDS011;33812;46.480;6.834;2023-11-19T18:44:41;10.43;;;3.60;;
48034;SDS011;33812;46.480;6.834;2023-11-19T18:48:43;11.75;;;4.68;;
48034;SDS011;33812;46.480;6.834;2023-11-19T18:52:44;11.32;;;4.65;;
48034;SDS011;33812;46.480;6.834;2023-11-19T18:56:46;15.50;;;4.43;;
48034;SDS011;33812;46.480;6.834;2023-11-19T19:00:49;21.70;;;7.07;;
48034;SDS011;33812;46.480;6.834;2023-11-19T19:04:51;17.42;;;6.90;;
48034;SDS011;33812;46.480;6.834;2023-11-19T19:08:53;22.60;;;8.88;;
48034;SDS011;33812;46.480;6.834;2023-11-19T19:12:55;23.17;;;8.38;;
48034;SDS011;33812;46.480;6.834;2023-11-19T19:16:58;15.57;;;7.55;;
48034;SDS011;33812;46.480;6.834;2023-11-19T19:21:00;16.55;;;7.30;;
48034;SDS011;33812;46.480;6.834;2023-11-19T19:25:02;11.60;;;4.45;;
48034;SDS011;33812;46.480;6.834;2023-11-19T19:29:06;9.18;;;2.83;;
48034;SDS011;33812;46.480;6.834;2023-11-19T19:33:10;2.65;;;1.58;;
48034;SDS011;33812;46.480;6.834;2023-11-19T19:41:14;3.50;;;1.58;;
48034;SDS011;33812;46.480;6.834;2023-11-19T19:45:16;4.85;;;1.00;;
48034;SDS011;33812;46.480;6.834;2023-11-19T19:49:19;1.90;;;0.93;;
48034;SDS011;33812;46.480;6.834;2023-11-19T19:53:21;6.18;;;1.20;;
48034;SDS011;33812;46.480;6.834;2023-11-19T19:57:23;1.90;;;0.90;;
48034;SDS011;33812;46.480;6.834;2023-11-19T20:01:24;6.05;;;1.17;;
48034;SDS011;33812;46.480;6.834;2023-11-19T20:05:28;5.05;;;1.20;;
48034;SDS011;33812;46.480;6.834;2023-11-19T20:09:30;2.85;;;1.02;;
48034;SDS011;33812;46.480;6.834;2023-11-19T20:13:34;2.65;;;0.93;;
48034;SDS011;33812;46.480;6.834;2023-11-19T20:17:36;1.95;;;0.88;;
48034;SDS011;33812;46.480;6.834;2023-11-19T20:21:40;3.95;;;0.90;;
48034;SDS011;33812;46.480;6.834;2023-11-19T20:25:41;3.53;;;0.98;;
48034;SDS011;33812;46.480;6.834;2023-11-19T20:29:46;7.00;;;1.20;;
48034;SDS011;33812;46.480;6.834;2023-11-19T20:33:48;3.45;;;1.13;;
48034;SDS011;33812;46.480;6.834;2023-11-19T20:37:51;2.00;;;1.10;;
48034;SDS011;33812;46.480;6.834;2023-11-19T20:41:53;1.67;;;0.90;;
48034;SDS011;33812;46.480;6.834;2023-11-19T20:45:55;14.18;;;1.27;;
48034;SDS011;33812;46.480;6.834;2023-11-19T20:49:57;2.83;;;1.20;;
48034;SDS011;33812;46.480;6.834;2023-11-19T20:54:00;1.88;;;0.98;;
48034;SDS011;33812;46.480;6.834;2023-11-19T20:58:02;6.03;;;1.13;;
48034;SDS011;33812;46.480;6.834;2023-11-19T21:02:05;2.22;;;1.00;;
48034;SDS011;33812;46.480;6.834;2023-11-19T21:06:07;2.10;;;1.25;;
48034;SDS011;33812;46.480;6.834;2023-11-19T21:10:11;7.85;;;1.00;;
48034;SDS011;33812;46.480;6.834;2023-11-19T21:14:15;1.63;;;0.80;;
48034;SDS011;33812;46.480;6.834;2023-11-19T21:18:17;4.18;;;0.82;;
48034;SDS011;33812;46.480;6.834;2023-11-19T21:22:19;3.38;;;1.10;;
48034;SDS011;33812;46.480;6.834;2023-11-19T21:26:22;1.98;;;0.80;;
48034;SDS011;33812;46.480;6.834;2023-11-19T21:30:24;2.40;;;1.00;;
48034;SDS011;33812;46.480;6.834;2023-11-19T21:34:26;1.15;;;0.70;;
48034;SDS011;33812;46.480;6.834;2023-11-19T21:38:29;1.30;;;0.90;;
48034;SDS011;33812;46.480;6.834;2023-11-19T21:42:33;2.28;;;1.05;;
48034;SDS011;33812;46.480;6.834;2023-11-19T21:46:35;1.40;;;0.80;;
48034;SDS011;33812;46.480;6.834;2023-11-19T21:50:36;3.05;;;1.00;;
48034;SDS011;33812;46.480;6.834;2023-11-19T21:54:38;3.00;;;1.10;;
48034;SDS011;33812;46.480;6.834;2023-11-19T21:58:42;1.10;;;0.90;;
48034;SDS011;33812;46.480;6.834;2023-11-19T22:02:44;1.17;;;0.90;;
48034;SDS011;33812;46.480;6.834;2023-11-19T22:06:46;2.42;;;1.02;;
48034;SDS011;33812;46.480;6.834;2023-11-19T22:10:47;1.00;;;0.70;;
48034;SDS011;33812;46.480;6.834;2023-11-19T22:14:51;2.13;;;0.95;;
48034;SDS011;33812;46.480;6.834;2023-11-19T22:18:52;2.00;;;0.90;;
48034;SDS011;33812;46.480;6.834;2023-11-19T22:22:54;1.38;;;0.80;;
48034;SDS011;33812;46.480;6.834;2023-11-19T22:26:56;1.20;;;0.80;;
48034;SDS011;33812;46.480;6.834;2023-11-19T22:30:59;1.45;;;0.90;;
48034;SDS011;33812;46.480;6.834;2023-11-19T22:35:02;2.97;;;0.90;;
48034;SDS011;33812;46.480;6.834;2023-11-19T22:39:04;1.60;;;0.93;;
48034;SDS011;33812;46.480;6.834;2023-11-19T22:43:06;0.98;;;0.77;;
48034;SDS011;33812;46.480;6.834;2023-11-19T22:47:09;1.00;;;0.75;;
48034;SDS011;33812;46.480;6.834;2023-11-19T22:51:11;2.35;;;1.20;;
48034;SDS011;33812;46.480;6.834;2023-11-19T22:55:14;1.40;;;0.93;;
48034;SDS011;33812;46.480;6.834;2023-11-19T22:59:16;1.48;;;0.98;;
48034;SDS011;33812;46.480;6.834;2023-11-19T23:03:19;1.15;;;0.77;;
48034;SDS011;33812;46.480;6.834;2023-11-19T23:07:21;1.60;;;1.00;;
48034;SDS011;33812;46.480;6.834;2023-11-19T23:11:22;2.03;;;1.10;;
48034;SDS011;33812;46.480;6.834;2023-11-19T23:15:24;1.77;;;0.93;;
48034;SDS011;33812;46.480;6.834;2023-11-19T23:19:28;1.20;;;1.00;;
48034;SDS011;33812;46.480;6.834;2023-11-19T23:23:29;2.25;;;1.27;;
48034;SDS011;33812;46.480;6.834;2023-11-19T23:27:31;1.35;;;1.05;;
48034;SDS011;33812;46.480;6.834;2023-11-19T23:31:33;2.10;;;1.40;;
48034;SDS011;33812;46.480;6.834;2023-11-19T23:35:37;1.58;;;1.05;;
48034;SDS011;33812;46.480;6.834;2023-11-19T23:39:38;1.05;;;0.95;;
48034;SDS011;33812;46.480;6.834;2023-11-19T23:43:40;1.67;;;1.20;;
48034;SDS011;33812;46.480;6.834;2023-11-19T23:47:42;1.60;;;1.23;;
48034;SDS011;33812;46.480;6.834;2023-11-19T23:51:45;2.10;;;1.40;;
48034;SDS011;33812;46.480;6.834;2023-11-19T23:55:47;2.05;;;1.35;;
48034;SDS011;33812;46.480;6.834;2023-11-19T23:59:49;1.88;;;1.13;;
